Time;durP1;ratioP1;P1;durP2;ratioP2;P2;SDS_P1;SDS_P2;PMS_P1;PMS_P2;Temp;Humidity;BMP_temperature;BMP_pressure;BME280_temperature;BME280_humidity;BME280_pressure;Samples;Min_cycle;Max_cycle;Signal;HPM_P1;HPM_P2
2023/12/21 06:01:57;;;;;;;4.87;0.77;;;;;;;;;;5245958;23;20502;-75
2023/12/21 06:04:23;;;;;;;0.70;0.60;;;;;;;;;;4977787;28;20938;-75
2023/12/21 06:06:49;;;;;;;1.83;0.63;;;;;;;;;;4976504;28;20404;-75
2023/12/21 06:09:16;;;;;;;1.00;0.90;;;;;;;;;;4975391;28;20784;-75
2023/12/21 06:11:42;;;;;;;0.70;0.60;;;;;;;;;;4945358;28;20442;-76
2023/12/21 06:14:08;;;;;;;0.80;0.70;;;;;;;;;;4938504;29;20485;-77
2023/12/21 06:16:34;;;;;;;0.90;0.80;;;;;;;;;;4938164;29;20417;-77
2023/12/21 06:19:00;;;;;;;1.13;0.80;;;;;;;;;;4937696;29;20410;-77
2023/12/21 06:21:26;;;;;;;0.90;0.80;;;;;;;;;;4937708;29;20425;-77
2023/12/21 06:23:52;;;;;;;0.83;0.80;;;;;;;;;;4946836;29;20460;-78
2023/12/21 06:26:18;;;;;;;0.80;0.70;;;;;;;;;;4960667;28;20828;-77
2023/12/21 06:28:44;;;;;;;1.57;0.80;;;;;;;;;;4960956;28;20467;-75
2023/12/21 06:31:14;;;;;;;0.80;0.70;;;;;;;;;;4960772;28;20513;-75
2023/12/21 06:33:40;;;;;;;1.60;1.03;;;;;;;;;;4959920;28;20408;-75
2023/12/21 06:36:06;;;;;;;0.97;0.87;;;;;;;;;;4960641;28;20456;-78
2023/12/21 06:38:32;;;;;;;0.80;0.70;;;;;;;;;;4956431;28;20428;-76
2023/12/21 06:40:58;;;;;;;0.80;0.70;;;;;;;;;;4956272;28;20440;-76
2023/12/21 06:43:24;;;;;;;0.90;0.80;;;;;;;;;;4955875;29;20461;-76
2023/12/21 06:45:51;;;;;;;1.60;0.83;;;;;;;;;;4952529;28;20932;-76
2023/12/21 06:48:17;;;;;;;0.90;0.80;;;;;;;;;;4936088;29;20418;-76
2023/12/21 06:50:43;;;;;;;0.67;0.60;;;;;;;;;;4935206;29;20501;-76
2023/12/21 06:53:15;;;;;;;1.43;0.90;;;;;;;;;;4936629;29;20425;-75
2023/12/21 06:55:41;;;;;;;0.80;0.70;;;;;;;;;;4935337;29;20430;-76
2023/12/21 06:58:07;;;;;;;2.93;0.87;;;;;;;;;;4936479;29;20940;-76
2023/12/21 07:00:33;;;;;;;4.70;2.50;;;;;;;;;;4940499;28;20546;-76
2023/12/21 07:03:00;;;;;;;1.73;1.43;;;;;;;;;;4955621;29;20464;-77
2023/12/21 07:05:26;;;;;;;0.80;0.70;;;;;;;;;;4954337;29;20556;-76
2023/12/21 07:07:54;;;;;;;1.27;1.10;;;;;;;;;;4953895;28;20483;-76
2023/12/21 07:10:20;;;;;;;3.60;0.80;;;;;;;;;;4955004;28;20579;-76
2023/12/21 07:12:46;;;;;;;2.10;0.80;;;;;;;;;;4955970;28;20932;-75
2023/12/21 07:15:12;;;;;;;1.10;1.00;;;;;;;;;;4956967;29;20444;-76
2023/12/21 07:17:39;;;;;;;0.80;0.70;;;;;;;;;;4956395;28;20917;-76
2023/12/21 07:20:05;;;;;;;0.77;0.67;;;;;;;;;;4956934;29;20481;-75
2023/12/21 07:22:31;;;;;;;1.77;1.00;;;;;;;;;;4958680;28;20464;-76
2023/12/21 07:24:57;;;;;;;0.90;0.80;;;;;;;;;;4957708;28;20416;-76
2023/12/21 07:27:24;;;;;;;0.90;0.80;;;;;;;;;;4960086;28;20725;-76
2023/12/21 07:29:50;;;;;;;0.83;0.80;;;;;;;;;;4956152;28;20428;-76
2023/12/21 07:32:16;;;;;;;1.20;1.03;;;;;;;;;;4955004;28;20428;-73
2023/12/21 07:34:43;;;;;;;1.33;1.00;;;;;;;;;;4952956;29;20507;-68
2023/12/21 07:37:12;;;;;;;1.83;0.73;;;;;;;;;;4955376;28;20491;-77
2023/12/21 07:39:38;;;;;;;1.43;0.97;;;;;;;;;;4956544;29;20421;-78
2023/12/21 07:42:04;;;;;;;2.00;0.80;;;;;;;;;;4957218;28;20860;-77
2023/12/21 07:44:32;;;;;;;0.97;0.87;;;;;;;;;;4955593;28;20471;-76
2023/12/21 07:46:58;;;;;;;0.90;0.80;;;;;;;;;;4954799;28;20435;-77
2023/12/21 07:49:24;;;;;;;1.80;0.90;;;;;;;;;;4955120;28;20766;-77
2023/12/21 07:51:50;;;;;;;0.93;0.83;;;;;;;;;;4956106;28;20432;-76
2023/12/21 07:54:16;;;;;;;0.90;0.80;;;;;;;;;;4955856;29;20516;-77
2023/12/21 07:56:42;;;;;;;1.27;0.97;;;;;;;;;;4954725;28;20838;-77
2023/12/21 07:59:08;;;;;;;1.17;1.00;;;;;;;;;;4954635;28;20995;-76
2023/12/21 08:01:34;;;;;;;0.90;0.80;;;;;;;;;;4944297;28;20480;-78
2023/12/21 08:04:00;;;;;;;0.83;0.80;;;;;;;;;;4936568;29;20844;-77
2023/12/21 08:06:26;;;;;;;1.07;0.80;;;;;;;;;;4936209;28;20474;-77
2023/12/21 08:08:52;;;;;;;2.90;1.10;;;;;;;;;;4959049;28;20409;-77
2023/12/21 08:11:21;;;;;;;1.80;0.93;;;;;;;;;;4954226;28;20827;-77
2023/12/21 08:13:48;;;;;;;3.30;1.00;;;;;;;;;;4964595;28;20555;-74
2023/12/21 08:16:14;;;;;;;4.13;1.13;;;;;;;;;;4952404;28;20425;-77
2023/12/21 08:18:40;;;;;;;3.17;1.30;;;;;;;;;;4964648;28;20975;-77
2023/12/21 08:21:07;;;;;;;1.00;0.90;;;;;;;;;;4959989;28;20971;-77
2023/12/21 08:23:32;;;;;;;1.83;1.10;;;;;;;;;;4955418;28;20487;-78
2023/12/21 08:25:58;;;;;;;2.50;0.90;;;;;;;;;;4954763;28;20417;-76
2023/12/21 08:28:26;;;;;;;0.90;0.80;;;;;;;;;;4952419;28;20827;-77
2023/12/21 08:30:53;;;;;;;0.90;0.80;;;;;;;;;;4953701;28;20800;-76
2023/12/21 08:33:19;;;;;;;1.30;0.90;;;;;;;;;;4952753;28;20878;-76
2023/12/21 08:35:46;;;;;;;1.00;0.90;;;;;;;;;;4941230;29;20429;-77
2023/12/21 08:38:12;;;;;;;0.90;0.80;;;;;;;;;;4938317;29;20434;-78
2023/12/21 08:40:38;;;;;;;0.80;0.70;;;;;;;;;;4937869;29;20808;-78
2023/12/21 08:43:04;;;;;;;0.90;0.80;;;;;;;;;;4937146;29;20468;-77
2023/12/21 08:45:31;;;;;;;1.57;1.07;;;;;;;;;;4938484;29;20880;-78
2023/12/21 08:47:57;;;;;;;1.43;1.10;;;;;;;;;;4938849;29;20448;-77
2023/12/21 08:50:24;;;;;;;1.20;1.00;;;;;;;;;;4941368;28;21091;-78
2023/12/21 08:52:50;;;;;;;2.70;1.07;;;;;;;;;;4938000;29;20508;-75
2023/12/21 08:55:16;;;;;;;1.83;1.33;;;;;;;;;;4953801;28;20439;-75
2023/12/21 08:57:42;;;;;;;1.43;1.07;;;;;;;;;;4953475;28;20428;-77
2023/12/21 09:00:12;;;;;;;3.17;0.97;;;;;;;;;;4955041;28;20436;-74
2023/12/21 09:02:38;;;;;;;2.03;1.17;;;;;;;;;;4949930;28;21000;-75
2023/12/21 09:05:05;;;;;;;0.90;0.80;;;;;;;;;;4948593;28;20437;-74
2023/12/21 09:07:31;;;;;;;1.73;1.10;;;;;;;;;;4955894;28;20772;-75
2023/12/21 09:09:57;;;;;;;1.90;1.37;;;;;;;;;;4949526;28;20438;-77
2023/12/21 09:12:23;;;;;;;1.43;1.40;;;;;;;;;;4968367;28;20448;-76
2023/12/21 09:14:49;;;;;;;2.47;1.30;;;;;;;;;;4942680;28;20421;-76
2023/12/21 09:17:15;;;;;;;1.43;1.03;;;;;;;;;;4957207;29;20429;-74
2023/12/21 09:19:43;;;;;;;1.70;1.13;;;;;;;;;;4957015;29;20428;-74
2023/12/21 09:22:08;;;;;;;1.87;0.97;;;;;;;;;;4956987;28;20432;-75
2023/12/21 09:24:35;;;;;;;1.57;1.47;;;;;;;;;;4956914;28;20425;-75
2023/12/21 09:27:01;;;;;;;1.33;1.23;;;;;;;;;;4955844;29;20409;-75
2023/12/21 09:29:27;;;;;;;1.80;1.13;;;;;;;;;;4940408;29;20917;-76
2023/12/21 09:31:53;;;;;;;1.83;1.20;;;;;;;;;;4945842;29;20499;-76
2023/12/21 09:34:19;;;;;;;1.10;1.00;;;;;;;;;;4957094;29;20503;-76
2023/12/21 09:36:45;;;;;;;2.10;1.30;;;;;;;;;;4958931;29;20413;-77
2023/12/21 09:39:12;;;;;;;1.70;1.10;;;;;;;;;;4947053;29;20414;-76
2023/12/21 09:41:38;;;;;;;1.30;1.10;;;;;;;;;;4957162;28;20469;-76
2023/12/21 09:44:04;;;;;;;1.23;1.10;;;;;;;;;;4944223;28;20496;-78
2023/12/21 09:46:34;;;;;;;1.27;1.13;;;;;;;;;;4951313;29;20429;-79
2023/12/21 09:49:00;;;;;;;1.10;1.00;;;;;;;;;;4960475;29;20457;-80
2023/12/21 09:51:27;;;;;;;1.00;0.90;;;;;;;;;;4955266;28;21068;-78
2023/12/21 09:53:53;;;;;;;1.17;1.10;;;;;;;;;;4939378;29;20823;-80
2023/12/21 09:56:20;;;;;;;1.07;0.90;;;;;;;;;;4938841;29;20450;-79
2023/12/21 09:58:48;;;;;;;1.43;0.90;;;;;;;;;;4937156;29;20418;-78
2023/12/21 10:01:14;;;;;;;1.47;1.43;;;;;;;;;;4937830;29;20449;-78
2023/12/21 10:03:40;;;;;;;1.73;1.30;;;;;;;;;;4938504;29;20461;-76
2023/12/21 10:06:07;;;;;;;1.87;1.40;;;;;;;;;;4939834;29;20737;-76
2023/12/21 10:08:33;;;;;;;1.50;1.07;;;;;;;;;;4945400;29;20417;-77
2023/12/21 10:10:59;;;;;;;2.47;1.50;;;;;;;;;;4944766;28;20489;-77
2023/12/21 10:13:25;;;;;;;3.10;1.57;;;;;;;;;;4936964;29;20436;-75
2023/12/21 10:15:58;;;;;;;1.87;1.80;;;;;;;;;;4943881;29;20540;-74
2023/12/21 10:18:26;;;;;;;1.33;1.23;;;;;;;;;;4963545;29;20436;-74
2023/12/21 10:20:53;;;;;;;3.37;1.20;;;;;;;;;;4956144;29;20509;-75
2023/12/21 10:23:19;;;;;;;3.17;1.50;;;;;;;;;;4958861;28;20534;-73
2023/12/21 10:25:50;;;;;;;4.30;1.30;;;;;;;;;;4956640;28;20421;-74
2023/12/21 10:28:16;;;;;;;1.57;1.53;;;;;;;;;;4960508;29;20440;-73
2023/12/21 10:30:42;;;;;;;1.33;1.10;;;;;;;;;;4967141;28;20436;-74
2023/12/21 10:33:09;;;;;;;2.90;1.30;;;;;;;;;;4961989;29;20406;-74
2023/12/21 10:35:36;;;;;;;3.53;1.07;;;;;;;;;;4964916;28;20858;-74
2023/12/21 10:38:02;;;;;;;1.03;0.93;;;;;;;;;;4964875;28;20431;-76
2023/12/21 10:40:28;;;;;;;0.97;0.90;;;;;;;;;;4971608;28;20964;-74
2023/12/21 10:42:56;;;;;;;4.53;1.23;;;;;;;;;;4964075;28;20551;-74
2023/12/21 10:45:22;;;;;;;4.63;1.77;;;;;;;;;;4954371;29;20421;-73
2023/12/21 10:47:50;;;;;;;1.90;1.30;;;;;;;;;;4955281;29;20428;-74
2023/12/21 10:50:17;;;;;;;1.00;0.90;;;;;;;;;;4954629;28;20443;-74
2023/12/21 10:52:44;;;;;;;0.70;0.60;;;;;;;;;;4955254;28;20947;-74
2023/12/21 10:55:10;;;;;;;1.27;0.90;;;;;;;;;;4956782;28;20955;-75
2023/12/21 10:57:41;;;;;;;0.90;0.83;;;;;;;;;;4955592;29;20487;-74
2023/12/21 11:00:12;;;;;;;2.70;1.40;;;;;;;;;;4952054;28;20406;-75
2023/12/21 11:02:39;;;;;;;1.00;0.97;;;;;;;;;;4935075;29;20560;-75
2023/12/21 11:05:05;;;;;;;1.00;0.90;;;;;;;;;;4953874;29;20971;-74
2023/12/21 11:07:31;;;;;;;1.37;1.17;;;;;;;;;;4950484;28;20507;-75
2023/12/21 11:10:00;;;;;;;2.00;1.43;;;;;;;;;;4953515;28;20929;-75
2023/12/21 11:12:26;;;;;;;1.07;0.93;;;;;;;;;;4954289;28;20442;-76
2023/12/21 11:14:52;;;;;;;1.93;1.00;;;;;;;;;;4955446;29;20425;-76
2023/12/21 11:17:19;;;;;;;1.77;1.30;;;;;;;;;;4954326;28;20428;-75
2023/12/21 11:19:45;;;;;;;1.00;0.90;;;;;;;;;;4955683;29;20433;-76
2023/12/21 11:22:13;;;;;;;1.47;1.00;;;;;;;;;;4955035;28;20940;-76
2023/12/21 11:24:39;;;;;;;1.10;1.00;;;;;;;;;;4941283;28;20864;-77
2023/12/21 11:27:06;;;;;;;0.93;0.83;;;;;;;;;;4955315;28;20448;-76
2023/12/21 11:29:33;;;;;;;1.07;0.93;;;;;;;;;;4958914;28;20447;-77
2023/12/21 11:32:05;;;;;;;1.00;0.90;;;;;;;;;;4958587;28;20444;-77
2023/12/21 11:34:35;;;;;;;2.37;1.03;;;;;;;;;;4961571;28;20472;-77
2023/12/21 11:37:21;;;;;;;1.47;0.90;;;;;;;;;;4956889;28;20436;-77
2023/12/21 11:39:48;;;;;;;1.03;0.93;;;;;;;;;;4952125;29;20433;-76
2023/12/21 11:42:14;;;;;;;5.70;1.20;;;;;;;;;;4949322;28;20449;-77
2023/12/21 11:44:40;;;;;;;1.50;1.03;;;;;;;;;;4956750;29;20425;-76
2023/12/21 11:47:07;;;;;;;1.13;0.93;;;;;;;;;;4955327;29;20424;-76
2023/12/21 11:49:33;;;;;;;0.90;0.80;;;;;;;;;;4955396;29;20873;-75
2023/12/21 11:51:59;;;;;;;1.17;1.00;;;;;;;;;;4954631;28;20439;-75
2023/12/21 11:54:26;;;;;;;1.47;1.23;;;;;;;;;;4955638;28;20424;-75
2023/12/21 11:56:53;;;;;;;0.93;0.80;;;;;;;;;;4954680;28;20500;-76
2023/12/21 11:59:22;;;;;;;1.13;1.07;;;;;;;;;;4954613;28;20944;-79
2023/12/21 12:01:49;;;;;;;1.17;1.10;;;;;;;;;;4956519;28;20456;-77
2023/12/21 12:04:16;;;;;;;1.37;1.10;;;;;;;;;;4956362;28;20523;-75
2023/12/21 12:06:43;;;;;;;1.10;1.00;;;;;;;;;;4956565;28;20408;-77
2023/12/21 12:09:09;;;;;;;1.30;1.00;;;;;;;;;;4961465;28;20456;-81
2023/12/21 12:11:35;;;;;;;5.73;1.10;;;;;;;;;;4940455;29;20480;-74
2023/12/21 12:14:01;;;;;;;2.60;1.07;;;;;;;;;;4949342;29;20481;-76
2023/12/21 12:16:27;;;;;;;1.20;1.10;;;;;;;;;;4971816;28;20409;-75
2023/12/21 12:18:54;;;;;;;1.13;1.07;;;;;;;;;;4956363;28;20924;-75
2023/12/21 12:21:20;;;;;;;1.13;1.03;;;;;;;;;;4958710;28;20954;-75
2023/12/21 12:23:47;;;;;;;1.43;0.93;;;;;;;;;;4954604;29;20465;-75
2023/12/21 12:26:14;;;;;;;1.47;1.43;;;;;;;;;;4938895;29;20877;-75
2023/12/21 12:28:40;;;;;;;2.03;1.57;;;;;;;;;;4939325;29;20409;-74
2023/12/21 12:31:06;;;;;;;0.97;0.87;;;;;;;;;;4938243;29;20437;-74
2023/12/21 12:33:37;;;;;;;0.80;0.80;;;;;;;;;;4945860;29;20479;-75
2023/12/21 12:36:07;;;;;;;1.57;1.20;;;;;;;;;;4960441;29;20413;-73
2023/12/21 12:38:33;;;;;;;1.10;1.00;;;;;;;;;;4942824;29;20429;-74
2023/12/21 12:40:59;;;;;;;1.43;0.70;;;;;;;;;;4950399;28;20531;-74
2023/12/21 12:43:30;;;;;;;1.27;0.97;;;;;;;;;;4955072;28;20464;-75
2023/12/21 12:45:58;;;;;;;1.40;1.10;;;;;;;;;;4952843;28;20431;-75
2023/12/21 12:48:24;;;;;;;1.07;0.97;;;;;;;;;;4954700;28;20436;-77
2023/12/21 12:50:51;;;;;;;1.17;1.07;;;;;;;;;;4958209;28;20452;-76
2023/12/21 12:53:17;;;;;;;2.97;1.20;;;;;;;;;;4957375;28;20495;-76
2023/12/21 12:55:46;;;;;;;2.03;1.10;;;;;;;;;;4958036;29;20456;-75
2023/12/21 12:58:14;;;;;;;0.80;0.80;;;;;;;;;;4958110;29;20425;-75
2023/12/21 13:00:40;;;;;;;1.00;0.90;;;;;;;;;;4956141;28;21039;-74
2023/12/21 13:03:07;;;;;;;1.83;0.90;;;;;;;;;;4957725;28;20498;-74
2023/12/21 13:05:33;;;;;;;1.53;1.17;;;;;;;;;;4957398;28;20413;-73
2023/12/21 13:07:59;;;;;;;0.80;0.70;;;;;;;;;;4955775;28;20452;-75
2023/12/21 13:10:26;;;;;;;0.90;0.80;;;;;;;;;;4957361;28;20409;-77
2023/12/21 13:12:52;;;;;;;1.23;0.87;;;;;;;;;;4956030;28;20452;-75
2023/12/21 13:15:18;;;;;;;1.00;0.90;;;;;;;;;;4959047;28;20428;-75
2023/12/21 13:17:44;;;;;;;0.73;0.63;;;;;;;;;;4955878;28;20463;-76
2023/12/21 13:20:11;;;;;;;0.80;0.70;;;;;;;;;;4942237;28;20450;-75
2023/12/21 13:22:37;;;;;;;0.90;0.80;;;;;;;;;;4937706;29;20465;-76
2023/12/21 13:25:03;;;;;;;0.80;0.70;;;;;;;;;;4937908;29;20406;-76
2023/12/21 13:27:29;;;;;;;0.73;0.63;;;;;;;;;;4937052;29;20516;-76
2023/12/21 13:29:56;;;;;;;0.87;0.77;;;;;;;;;;4936752;29;20417;-75
2023/12/21 13:32:24;;;;;;;0.80;0.70;;;;;;;;;;4937840;29;20437;-76
2023/12/21 13:34:50;;;;;;;0.83;0.80;;;;;;;;;;4937946;29;20824;-76
2023/12/21 13:37:16;;;;;;;0.80;0.70;;;;;;;;;;4948104;29;20441;-76
2023/12/21 13:39:46;;;;;;;0.90;0.80;;;;;;;;;;4952321;29;20467;-76
2023/12/21 13:42:12;;;;;;;0.90;0.87;;;;;;;;;;4956137;28;20483;-76
2023/12/21 13:44:38;;;;;;;0.73;0.70;;;;;;;;;;4956654;28;20908;-76
2023/12/21 13:47:04;;;;;;;0.93;0.83;;;;;;;;;;4955931;29;20417;-77
2023/12/21 13:49:30;;;;;;;1.37;1.10;;;;;;;;;;4956296;28;20417;-76
2023/12/21 13:51:56;;;;;;;0.87;0.77;;;;;;;;;;4956899;28;20475;-77
2023/12/21 13:54:22;;;;;;;5.13;0.90;;;;;;;;;;4956906;28;20784;-75
2023/12/21 13:56:48;;;;;;;0.87;0.77;;;;;;;;;;4956720;29;20504;-76
2023/12/21 13:59:14;;;;;;;1.10;1.00;;;;;;;;;;4955952;28;20448;-76
2023/12/21 14:01:40;;;;;;;1.80;1.00;;;;;;;;;;4955525;28;20464;-77
2023/12/21 14:04:06;;;;;;;0.80;0.70;;;;;;;;;;4958376;29;20488;-76
2023/12/21 14:06:33;;;;;;;2.40;1.47;;;;;;;;;;4946524;29;20490;-77
2023/12/21 14:08:59;;;;;;;0.90;0.80;;;;;;;;;;4946054;29;20414;-76
2023/12/21 14:11:24;;;;;;;0.80;0.80;;;;;;;;;;4948044;29;20552;-76
2023/12/21 14:13:51;;;;;;;1.20;1.10;;;;;;;;;;4982238;23;20501;-75
2023/12/21 14:16:17;;;;;;;1.60;0.90;;;;;;;;;;4995369;28;20403;-75
2023/12/21 14:18:43;;;;;;;1.53;0.90;;;;;;;;;;4995205;28;20411;-75
2023/12/21 14:21:09;;;;;;;0.73;0.70;;;;;;;;;;4996601;28;20834;-75
2023/12/21 14:23:35;;;;;;;1.00;0.90;;;;;;;;;;4977230;28;20507;-75
2023/12/21 14:26:01;;;;;;;1.17;0.80;;;;;;;;;;4955705;29;20440;-75
2023/12/21 14:28:27;;;;;;;0.80;0.70;;;;;;;;;;4956636;28;20444;-76
2023/12/21 14:30:53;;;;;;;1.00;0.90;;;;;;;;;;4956130;28;20460;-75
2023/12/21 14:33:18;;;;;;;1.33;0.67;;;;;;;;;;4938067;29;20803;-76
2023/12/21 14:35:44;;;;;;;0.80;0.70;;;;;;;;;;4936852;29;20468;-76
2023/12/21 14:38:10;;;;;;;1.13;1.10;;;;;;;;;;4936891;29;20424;-75
2023/12/21 14:40:37;;;;;;;0.80;0.70;;;;;;;;;;4936881;29;20423;-78
2023/12/21 14:43:03;;;;;;;2.00;0.80;;;;;;;;;;4956770;28;20603;-75
2023/12/21 14:45:29;;;;;;;1.67;0.90;;;;;;;;;;4955444;28;20428;-74
2023/12/21 14:47:55;;;;;;;3.63;1.13;;;;;;;;;;4938783;28;20512;-74
2023/12/21 14:50:22;;;;;;;0.70;0.60;;;;;;;;;;4936200;29;20414;-74
2023/12/21 14:52:48;;;;;;;2.40;1.90;;;;;;;;;;4936268;29;20409;-73
2023/12/21 14:55:17;;;;;;;0.93;0.90;;;;;;;;;;4935957;29;20448;-73
2023/12/21 14:57:43;;;;;;;1.03;0.87;;;;;;;;;;4935855;29;20441;-73
2023/12/21 15:00:10;;;;;;;0.83;0.77;;;;;;;;;;4950446;29;20574;-75
2023/12/21 15:02:36;;;;;;;1.00;0.90;;;;;;;;;;4954957;29;20461;-73
2023/12/21 15:05:02;;;;;;;1.60;0.80;;;;;;;;;;4944870;28;20500;-73
2023/12/21 15:07:28;;;;;;;1.23;1.17;;;;;;;;;;4941147;29;20831;-71
2023/12/21 15:09:54;;;;;;;1.73;1.50;;;;;;;;;;4944433;29;20425;-73
2023/12/21 15:12:21;;;;;;;1.00;0.70;;;;;;;;;;4935455;29;20469;-73
2023/12/21 15:14:46;;;;;;;1.17;1.00;;;;;;;;;;4934574;29;20888;-73
2023/12/21 15:17:13;;;;;;;2.63;1.27;;;;;;;;;;4935758;29;20497;-73
2023/12/21 15:19:39;;;;;;;1.67;1.10;;;;;;;;;;4936141;29;20417;-73
2023/12/21 15:22:05;;;;;;;1.23;1.10;;;;;;;;;;4935675;29;20842;-73
2023/12/21 15:24:31;;;;;;;1.03;1.00;;;;;;;;;;4935427;29;20493;-73
2023/12/21 15:26:57;;;;;;;1.63;0.90;;;;;;;;;;4936150;29;20406;-73
2023/12/21 15:29:23;;;;;;;1.10;1.00;;;;;;;;;;4936201;29;20433;-73
2023/12/21 15:31:49;;;;;;;4.20;1.30;;;;;;;;;;4935359;29;20422;-73
2023/12/21 15:34:15;;;;;;;1.13;1.00;;;;;;;;;;4935607;29;20440;-73
2023/12/21 15:36:41;;;;;;;1.20;1.10;;;;;;;;;;4935409;29;20410;-73
2023/12/21 15:39:08;;;;;;;1.53;1.43;;;;;;;;;;4934778;29;20855;-73
2023/12/21 15:41:34;;;;;;;0.80;0.70;;;;;;;;;;4934692;29;20409;-73
2023/12/21 15:44:00;;;;;;;2.17;1.00;;;;;;;;;;4935108;29;20984;-73
2023/12/21 15:46:26;;;;;;;1.17;1.07;;;;;;;;;;4935300;29;20414;-73
2023/12/21 15:48:52;;;;;;;0.80;0.77;;;;;;;;;;4935415;29;20452;-73
2023/12/21 15:51:19;;;;;;;0.80;0.70;;;;;;;;;;4935075;29;20418;-73
2023/12/21 15:53:45;;;;;;;1.27;0.93;;;;;;;;;;4935155;29;20437;-73
2023/12/21 15:56:12;;;;;;;1.53;1.00;;;;;;;;;;4934883;29;20519;-73
2023/12/21 15:58:38;;;;;;;1.33;0.87;;;;;;;;;;4942670;29;20422;-73
2023/12/21 16:01:04;;;;;;;0.97;0.80;;;;;;;;;;4937274;29;20448;-74
2023/12/21 16:03:30;;;;;;;1.27;1.00;;;;;;;;;;4936574;29;20560;-74
2023/12/21 16:05:57;;;;;;;1.47;0.97;;;;;;;;;;4935592;29;20418;-73
2023/12/21 16:08:23;;;;;;;3.87;1.07;;;;;;;;;;4935846;29;20405;-73
2023/12/21 16:10:49;;;;;;;2.83;1.20;;;;;;;;;;4934757;29;20650;-73
2023/12/21 16:13:15;;;;;;;1.13;1.07;;;;;;;;;;4934902;29;20421;-73
2023/12/21 16:15:41;;;;;;;1.33;1.20;;;;;;;;;;4935063;29;20653;-73
2023/12/21 16:18:07;;;;;;;1.80;1.77;;;;;;;;;;4934789;29;20773;-73
2023/12/21 16:20:33;;;;;;;2.13;1.00;;;;;;;;;;4934903;29;20706;-73
2023/12/21 16:23:01;;;;;;;1.27;1.20;;;;;;;;;;4933765;29;20493;-73
2023/12/21 16:25:27;;;;;;;1.47;1.20;;;;;;;;;;4933271;29;21003;-73
2023/12/21 16:27:53;;;;;;;1.37;0.90;;;;;;;;;;4934550;29;20480;-73
2023/12/21 16:30:20;;;;;;;1.80;1.20;;;;;;;;;;4934719;29;20425;-73
2023/12/21 16:32:47;;;;;;;3.60;1.40;;;;;;;;;;4934485;29;20885;-73
2023/12/21 16:35:16;;;;;;;1.43;1.20;;;;;;;;;;4934874;29;20801;-73
2023/12/21 16:37:42;;;;;;;9.17;1.30;;;;;;;;;;4934643;29;20409;-73
2023/12/21 16:40:09;;;;;;;1.20;1.20;;;;;;;;;;4933197;29;20928;-73
2023/12/21 16:42:35;;;;;;;1.00;0.90;;;;;;;;;;4933096;29;20844;-73
2023/12/21 16:45:03;;;;;;;1.47;1.30;;;;;;;;;;4934546;29;20425;-73
2023/12/21 16:47:29;;;;;;;4.23;1.30;;;;;;;;;;4934573;29;20445;-73
2023/12/21 16:49:55;;;;;;;1.03;0.93;;;;;;;;;;4934492;29;20496;-73
2023/12/21 16:52:21;;;;;;;1.30;1.20;;;;;;;;;;4934612;29;20482;-73
2023/12/21 16:54:47;;;;;;;1.33;1.23;;;;;;;;;;4934219;29;20430;-73
2023/12/21 16:57:13;;;;;;;8.83;1.40;;;;;;;;;;4934666;29;20431;-74
2023/12/21 16:59:40;;;;;;;3.10;1.40;;;;;;;;;;4934371;29;20844;-73
2023/12/21 17:02:05;;;;;;;2.30;2.10;;;;;;;;;;4934225;29;20836;-73
2023/12/21 17:04:32;;;;;;;3.60;1.70;;;;;;;;;;4934266;29;20516;-73
2023/12/21 17:06:59;;;;;;;2.47;1.73;;;;;;;;;;4934443;29;20425;-73
2023/12/21 17:09:25;;;;;;;1.70;1.50;;;;;;;;;;4934250;29;20409;-73
2023/12/21 17:11:51;;;;;;;1.40;1.30;;;;;;;;;;4933994;29;20807;-73
2023/12/21 17:14:17;;;;;;;1.00;0.90;;;;;;;;;;4934152;29;20887;-73
2023/12/21 17:16:43;;;;;;;2.83;1.10;;;;;;;;;;4934429;29;20508;-73
2023/12/21 17:19:09;;;;;;;2.27;1.00;;;;;;;;;;4934453;29;20425;-73
2023/12/21 17:21:35;;;;;;;1.93;0.90;;;;;;;;;;4934029;29;20417;-73
2023/12/21 17:24:02;;;;;;;1.90;0.90;;;;;;;;;;4934246;29;20980;-73
2023/12/21 17:26:28;;;;;;;1.00;0.90;;;;;;;;;;4934438;29;20556;-73
2023/12/21 17:28:54;;;;;;;1.13;1.00;;;;;;;;;;4934271;29;20409;-73
2023/12/21 17:31:20;;;;;;;2.20;0.90;;;;;;;;;;4933839;29;20412;-73
2023/12/21 17:33:50;;;;;;;0.83;0.80;;;;;;;;;;4935690;29;20438;-74
2023/12/21 17:36:16;;;;;;;1.90;1.07;;;;;;;;;;4937273;28;20857;-73
2023/12/21 17:38:42;;;;;;;1.07;0.90;;;;;;;;;;4937522;29;20465;-73
2023/12/21 17:41:08;;;;;;;1.30;1.20;;;;;;;;;;4937731;29;20401;-73
2023/12/21 17:43:34;;;;;;;1.23;1.00;;;;;;;;;;4937270;29;20471;-73
2023/12/21 17:46:01;;;;;;;1.60;1.07;;;;;;;;;;4937497;29;20412;-73
2023/12/21 17:48:27;;;;;;;1.20;1.00;;;;;;;;;;4937508;29;20434;-73
2023/12/21 17:50:53;;;;;;;1.60;1.10;;;;;;;;;;4937240;29;20760;-73
2023/12/21 17:53:21;;;;;;;1.00;0.90;;;;;;;;;;4937273;29;20424;-73
2023/12/21 17:55:47;;;;;;;2.40;1.43;;;;;;;;;;4937455;29;20508;-73
2023/12/21 17:58:13;;;;;;;1.67;1.37;;;;;;;;;;4937396;29;20496;-73
2023/12/21 18:00:39;;;;;;;1.80;1.13;;;;;;;;;;4936956;29;20447;-73
2023/12/21 18:03:05;;;;;;;5.47;1.20;;;;;;;;;;4937038;29;20519;-73
2023/12/21 18:05:31;;;;;;;1.50;1.10;;;;;;;;;;4937010;29;20429;-73
2023/12/21 18:07:57;;;;;;;1.83;1.13;;;;;;;;;;4937110;29;20624;-73
2023/12/21 18:10:23;;;;;;;1.80;0.97;;;;;;;;;;4937160;29;20410;-73
2023/12/21 18:12:49;;;;;;;1.20;1.20;;;;;;;;;;4936946;29;20410;-73
2023/12/21 18:15:15;;;;;;;2.20;1.07;;;;;;;;;;4936908;29;20973;-73
2023/12/21 18:17:41;;;;;;;1.87;1.10;;;;;;;;;;4936875;29;20793;-73
2023/12/21 18:20:07;;;;;;;2.63;1.60;;;;;;;;;;4936900;29;20428;-73
2023/12/21 18:22:34;;;;;;;5.43;1.20;;;;;;;;;;4936971;29;20493;-73
2023/12/21 18:25:00;;;;;;;1.40;1.30;;;;;;;;;;4936800;29;20430;-75
2023/12/21 18:27:26;;;;;;;1.10;1.00;;;;;;;;;;4937193;29;20414;-73
2023/12/21 18:29:52;;;;;;;2.27;1.73;;;;;;;;;;4936662;29;20468;-73
2023/12/21 18:32:18;;;;;;;1.70;1.10;;;;;;;;;;4936483;29;20889;-70
2023/12/21 18:34:45;;;;;;;2.43;1.63;;;;;;;;;;4941295;28;20460;-71
2023/12/21 18:37:11;;;;;;;1.00;1.00;;;;;;;;;;4955424;28;20417;-71
2023/12/21 18:39:38;;;;;;;1.90;1.10;;;;;;;;;;4966649;28;20418;-71
2023/12/21 18:42:04;;;;;;;1.70;1.37;;;;;;;;;;4964116;28;20423;-74
2023/12/21 18:44:30;;;;;;;2.03;1.43;;;;;;;;;;4954680;28;20479;-74
2023/12/21 18:46:56;;;;;;;2.40;1.47;;;;;;;;;;4953962;29;20416;-74
2023/12/21 18:49:22;;;;;;;1.30;1.03;;;;;;;;;;4953017;28;20444;-73
2023/12/21 18:51:48;;;;;;;1.83;1.40;;;;;;;;;;4949200;28;20424;-73
2023/12/21 18:54:14;;;;;;;1.33;1.03;;;;;;;;;;4950278;28;20446;-73
2023/12/21 18:56:40;;;;;;;2.20;1.27;;;;;;;;;;4948663;29;20511;-72
2023/12/21 18:59:07;;;;;;;1.33;1.10;;;;;;;;;;4946068;28;20416;-74
2023/12/21 19:01:33;;;;;;;5.70;1.70;;;;;;;;;;4946458;29;20439;-73
2023/12/21 19:03:59;;;;;;;4.90;1.50;;;;;;;;;;4943805;28;20473;-72
2023/12/21 19:06:24;;;;;;;2.70;1.03;;;;;;;;;;4948757;29;20444;-73
2023/12/21 19:08:51;;;;;;;1.07;1.00;;;;;;;;;;4945192;29;20410;-73
2023/12/21 19:11:21;;;;;;;2.30;1.13;;;;;;;;;;4944012;29;20419;-73
2023/12/21 19:13:47;;;;;;;5.50;1.10;;;;;;;;;;4943190;28;20971;-73
2023/12/21 19:16:14;;;;;;;2.20;1.50;;;;;;;;;;4942900;29;20422;-72
2023/12/21 19:18:41;;;;;;;1.97;1.03;;;;;;;;;;4953958;28;20484;-70
2023/12/21 19:21:08;;;;;;;1.20;1.10;;;;;;;;;;4946552;29;20421;-74
2023/12/21 19:23:34;;;;;;;1.07;1.00;;;;;;;;;;4947692;28;20472;-73
2023/12/21 19:26:00;;;;;;;0.90;0.80;;;;;;;;;;4939807;28;20431;-74
2023/12/21 19:28:28;;;;;;;1.67;1.03;;;;;;;;;;4935418;29;20421;-73
2023/12/21 19:30:54;;;;;;;2.40;1.20;;;;;;;;;;4939663;29;20583;-75
2023/12/21 19:33:20;;;;;;;1.20;1.10;;;;;;;;;;4954487;28;20417;-75
2023/12/21 19:35:46;;;;;;;6.33;1.20;;;;;;;;;;4954066;29;20438;-74
2023/12/21 19:38:12;;;;;;;1.93;1.40;;;;;;;;;;4954439;28;20479;-74
2023/12/21 19:40:38;;;;;;;2.00;1.50;;;;;;;;;;4954816;29;20428;-73
2023/12/21 19:43:04;;;;;;;6.30;1.50;;;;;;;;;;4954567;28;20468;-74
2023/12/21 19:45:30;;;;;;;4.13;1.30;;;;;;;;;;4954248;28;20488;-73
2023/12/21 19:47:56;;;;;;;2.30;1.10;;;;;;;;;;4956095;28;20420;-70
2023/12/21 19:50:22;;;;;;;2.73;1.27;;;;;;;;;;4953783;29;20424;-73
2023/12/21 19:52:48;;;;;;;6.23;1.50;;;;;;;;;;4954442;29;20424;-74
2023/12/21 19:55:14;;;;;;;3.93;1.33;;;;;;;;;;4954263;28;20436;-75
2023/12/21 19:57:42;;;;;;;1.83;1.57;;;;;;;;;;4965061;28;20935;-74
2023/12/21 20:00:08;;;;;;;1.37;1.30;;;;;;;;;;4960273;28;20452;-75
2023/12/21 20:02:34;;;;;;;3.47;1.60;;;;;;;;;;4958241;29;20772;-74
2023/12/21 20:05:01;;;;;;;3.03;1.30;;;;;;;;;;4954741;28;20729;-76
2023/12/21 20:07:28;;;;;;;2.27;1.30;;;;;;;;;;4954257;28;20995;-76
2023/12/21 20:09:54;;;;;;;2.10;1.60;;;;;;;;;;4954383;28;20443;-76
2023/12/21 20:12:21;;;;;;;3.10;1.60;;;;;;;;;;4957256;28;20421;-74
2023/12/21 20:14:47;;;;;;;3.03;1.33;;;;;;;;;;5163673;23;20525;-79
2023/12/21 20:17:13;;;;;;;2.07;1.23;;;;;;;;;;4996832;28;20423;-78
2023/12/21 20:19:40;;;;;;;7.20;1.90;;;;;;;;;;4996215;28;20494;-78
2023/12/21 20:22:07;;;;;;;4.43;1.43;;;;;;;;;;5000395;28;20498;-78
2023/12/21 20:24:33;;;;;;;3.93;1.50;;;;;;;;;;4991247;28;20475;-79
2023/12/21 20:26:59;;;;;;;3.87;1.33;;;;;;;;;;4986160;28;20416;-79
2023/12/21 20:29:25;;;;;;;2.27;1.30;;;;;;;;;;4981779;28;20891;-79
2023/12/21 20:31:51;;;;;;;3.43;1.53;;;;;;;;;;4974806;28;20502;-78
2023/12/21 20:34:17;;;;;;;3.27;1.50;;;;;;;;;;4976776;28;20458;-78
2023/12/21 20:36:43;;;;;;;4.30;2.00;;;;;;;;;;4975745;28;20790;-78
2023/12/21 20:39:08;;;;;;;9.43;1.67;;;;;;;;;;4975363;28;20428;-78